Rieti, Italy

08:53 AM CEST del 28 Agosto 2016 (GMT +0200)
Rieti | | Change Station

Alt. 1276 ft 42.43 °N, 12.85 °E | Updated 1 hour ago

Clear
Sereno
59 °F
Sembra 59 °F
N
2
Vento Variabile Vento da Variabile

Oggi
Massima -- | Minima -- °F
--% Possibilità di precip.
Ieri
Massima -- | Minima -- °F
Precip. -- in
Pressione 30.15 in
Visibilità -9999.0 miglia
Nuvole
Punto di rugiada 55 °F
Umidità 88%
Piovosità 0.00 in
Spessore del manto nevoso Non disponibile.
6:29 AM 7:48 PM
Luna calante, 18% visible
METAR LIQN 280550Z VRB02KT CAVOK 15/13 Q1021
Pressione 30.15 in
Visibilità -9999.0 miglia
Nuvole
Punto di rugiada 55 °F
Umidità 88%
Piovosità 0.00 in
Spessore del manto nevoso Non disponibile.
6:29 AM 7:48 PM
Luna calante, 18% visible
METAR LIQN 280550Z VRB02KT CAVOK 15/13 Q1021

10-Day Weather Forecast

×

Almanac

Astronomia

Aug. 28, 2016 Alba Tramonto
Ora attuale
Crepuscolo civile
Crepuscolo nautico
Crepuscolo astronomico
Luna
Estensione della luce visibile
Lunghezza del giorno
Tomorrow will be .
, % of the Moon is Illuminated

Gli estremi di oggi

Massime Regione Minime Regione

Community

WunderPhotos

Upload Photos

1,935,533 foto caricate!

WunderBlog® & News

Nearby

Qualità dell'aria

  Qualità dell'aria Indice AQ Inquinante
Not available.

Profondità neve

Stazione Profondità Altitudine

Attività sismica

Città  Distanza Mag. Data & Ora
Minimo Magnitudo Mostrato è 2.5.

Temperature delle acque costiere

Località Temperatura

Stations

Stazioni meteo nelle vicinanze

Ubicazione della stazione Temp. Raffreddamento del vento Punto di rugiada Umidità Vento Precip. Alt. Aggiornato Tipo